Time;durP1;ratioP1;P1;durP2;ratioP2;P2;SDS_P1;SDS_P2;PMS_P1;PMS_P2;Temp;Humidity;BMP_temperature;BMP_pressure;BME280_temperature;BME280_humidity;BME280_pressure;Samples;Min_cycle;Max_cycle;Signal;HPM_P1;HPM_P2
2022/03/03 00:01:18;;;;;;;42.33;28.37;;;1.60;1.00;;;;;;6306081;28;20229;-57
2022/03/03 00:04:21;;;;;;;36.63;26.63;;;1.60;1.00;;;;;;6307487;28;20628;-55
2022/03/03 00:07:24;;;;;;;45.57;30.63;;;1.40;1.00;;;;;;6301157;28;20224;-57
2022/03/03 00:10:28;;;;;;;42.47;29.33;;;1.40;1.00;;;;;;6301072;28;20259;-54
2022/03/03 00:13:30;;;;;;;46.47;28.57;;;1.50;1.00;;;;;;6307944;28;20256;-56
2022/03/03 00:16:35;;;;;;;45.97;30.40;;;1.70;1.00;;;;;;6303889;28;20335;-55
2022/03/03 00:19:38;;;;;;;46.83;30.40;;;1.50;1.00;;;;;;6304116;28;20232;-55
2022/03/03 00:22:40;;;;;;;46.83;28.73;;;1.70;1.00;;;;;;6308100;28;20225;-56
2022/03/03 00:25:43;;;;;;;42.97;27.33;;;1.70;1.00;;;;;;6306343;28;20733;-55
2022/03/03 00:28:46;;;;;;;38.50;26.07;;;1.60;1.00;;;;;;6306594;28;20268;-56
2022/03/03 00:31:50;;;;;;;40.33;27.13;;;1.40;1.00;;;;;;6310847;28;20357;-57
2022/03/03 00:34:53;;;;;;;42.57;28.37;;;1.60;1.00;;;;;;6304724;28;20707;-55
2022/03/03 00:37:56;;;;;;;40.53;25.77;;;1.30;1.00;;;;;;6314515;28;20228;-55
2022/03/03 00:40:58;;;;;;;49.90;32.03;;;1.40;1.00;;;;;;6309311;28;20332;-55
2022/03/03 00:44:01;;;;;;;46.70;30.60;;;1.60;1.00;;;;;;6316589;28;20593;-56
2022/03/03 00:47:06;;;;;;;45.63;29.07;;;1.70;1.00;;;;;;6313996;28;20728;-55
2022/03/03 00:50:10;;;;;;;52.53;31.93;;;1.50;1.00;;;;;;6309976;28;20703;-56
2022/03/03 00:53:13;;;;;;;42.17;28.80;;;1.80;1.00;;;;;;6317999;28;20260;-55
2022/03/03 00:56:16;;;;;;;42.93;29.13;;;1.60;1.00;;;;;;6317191;28;20812;-56
2022/03/03 00:59:18;;;;;;;37.93;26.20;;;1.40;1.00;;;;;;6313470;28;20382;-56
2022/03/03 01:02:22;;;;;;;34.83;25.80;;;1.50;1.00;;;;;;6317061;28;20247;-55
2022/03/03 01:05:26;;;;;;;39.60;27.10;;;1.70;1.00;;;;;;6317121;28;20252;-56
2022/03/03 01:08:29;;;;;;;43.03;27.57;;;1.40;1.00;;;;;;6305428;28;20608;-56
2022/03/03 01:11:31;;;;;;;38.90;26.40;;;1.60;1.00;;;;;;6315983;28;20319;-55
2022/03/03 01:14:35;;;;;;;42.67;27.00;;;1.50;1.00;;;;;;6314357;28;20327;-55
2022/03/03 01:17:39;;;;;;;40.83;26.00;;;1.50;1.00;;;;;;6306913;28;20237;-55
2022/03/03 01:20:42;;;;;;;42.50;26.07;;;1.70;1.00;;;;;;6302856;28;20366;-56
2022/03/03 01:23:45;;;;;;;48.03;29.67;;;1.60;1.00;;;;;;6311336;28;20355;-55
2022/03/03 01:26:48;;;;;;;52.40;31.77;;;1.80;1.00;;;;;;6291948;28;20316;-55
2022/03/03 01:29:51;;;;;;;45.73;28.87;;;1.60;1.00;;;;;;6303736;28;20301;-55
2022/03/03 01:32:55;;;;;;;50.70;31.23;;;1.40;1.00;;;;;;6313025;28;20278;-56
2022/03/03 01:35:58;;;;;;;44.63;28.97;;;1.80;1.00;;;;;;6314128;28;20266;-55
2022/03/03 01:39:01;;;;;;;44.87;28.50;;;1.70;1.00;;;;;;6296960;28;20607;-55
2022/03/03 01:42:04;;;;;;;46.50;30.33;;;1.80;1.00;;;;;;6306098;28;20792;-57
2022/03/03 01:45:08;;;;;;;49.13;31.77;;;1.80;1.00;;;;;;6310088;28;20627;-56
2022/03/03 01:48:13;;;;;;;50.50;32.03;;;1.80;1.00;;;;;;6286353;28;20225;-56
2022/03/03 01:51:15;;;;;;;50.70;32.70;;;1.80;1.00;;;;;;6306043;28;20260;-55
2022/03/03 01:54:18;;;;;;;46.83;30.57;;;1.60;1.00;;;;;;6301740;28;20247;-56
2022/03/03 01:57:22;;;;;;;49.17;31.77;;;1.60;1.00;;;;;;6305710;28;20290;-56
2022/03/03 02:00:25;;;;;;;52.10;33.23;;;1.90;1.00;;;;;;6303927;28;20327;-55
2022/03/03 02:03:29;;;;;;;49.67;31.00;;;2.00;1.00;;;;;;6304686;28;20306;-55
2022/03/03 02:06:32;;;;;;;46.03;30.53;;;1.80;1.00;;;;;;6312636;28;20365;-55
2022/03/03 02:09:35;;;;;;;56.37;33.07;;;1.70;1.00;;;;;;6310095;28;20786;-55
2022/03/03 02:12:38;;;;;;;48.30;32.37;;;1.60;1.00;;;;;;6307286;28;20330;-56
2022/03/03 02:15:48;;;;;;;53.60;31.93;;;1.60;1.00;;;;;;6311387;28;20327;-54
2022/03/03 02:18:52;;;;;;;49.07;31.47;;;1.90;1.00;;;;;;6306768;28;20435;-55
2022/03/03 02:21:56;;;;;;;46.07;29.77;;;1.60;1.00;;;;;;6309700;28;20305;-56
2022/03/03 02:24:59;;;;;;;45.97;30.53;;;1.60;1.00;;;;;;6311843;28;20318;-57
2022/03/03 02:28:02;;;;;;;48.57;30.40;;;2.00;1.00;;;;;;6304807;28;20286;-57
2022/03/03 02:31:05;;;;;;;47.63;31.37;;;1.90;1.00;;;;;;6308800;28;20578;-55
2022/03/03 02:34:08;;;;;;;45.50;31.23;;;1.90;1.00;;;;;;6301739;28;20320;-55
2022/03/03 02:37:12;;;;;;;43.20;30.13;;;1.90;1.00;;;;;;6295863;28;20295;-55
2022/03/03 02:40:20;;;;;;;52.47;31.40;;;2.00;1.00;;;;;;6308671;28;20415;-55
2022/03/03 02:43:23;;;;;;;45.57;31.77;;;2.20;1.00;;;;;;6311303;28;20470;-56
2022/03/03 02:46:26;;;;;;;51.30;32.27;;;2.00;1.00;;;;;;6299666;28;20229;-56
2022/03/03 02:49:29;;;;;;;50.33;30.83;;;2.00;1.00;;;;;;6305059;28;20244;-55
2022/03/03 02:52:33;;;;;;;41.80;30.17;;;2.20;1.00;;;;;;6310036;28;20767;-55
2022/03/03 02:55:36;;;;;;;38.93;28.03;;;2.10;1.00;;;;;;6302822;28;20240;-54
2022/03/03 02:58:39;;;;;;;40.73;28.27;;;1.90;1.00;;;;;;6305387;28;20366;-55
2022/03/03 03:01:42;;;;;;;45.37;30.00;;;2.10;1.00;;;;;;6309441;28;20267;-55
2022/03/03 03:04:45;;;;;;;40.27;27.40;;;2.20;1.00;;;;;;6309620;28;20305;-56
2022/03/03 03:07:49;;;;;;;37.87;27.10;;;1.90;1.00;;;;;;6296984;28;20721;-57
2022/03/03 03:10:52;;;;;;;40.73;27.43;;;2.00;1.00;;;;;;6299155;28;20369;-57
2022/03/03 03:13:55;;;;;;;36.23;26.67;;;1.90;1.00;;;;;;6310452;28;20815;-56
2022/03/03 03:16:58;;;;;;;32.63;23.90;;;1.90;1.00;;;;;;6287638;28;20314;-55
2022/03/03 03:20:01;;;;;;;32.43;23.23;;;1.70;1.00;;;;;;6308787;28;20247;-54
2022/03/03 03:23:05;;;;;;;30.37;23.77;;;1.90;1.00;;;;;;6304878;28;20709;-56
2022/03/03 03:26:08;;;;;;;33.00;24.30;;;1.80;1.00;;;;;;6310613;28;20258;-55
2022/03/03 03:29:11;;;;;;;31.67;22.43;;;1.90;1.00;;;;;;6307475;28;20285;-55
2022/03/03 03:32:14;;;;;;;40.00;24.97;;;1.50;1.00;;;;;;6307489;28;20228;-57
2022/03/03 03:35:16;;;;;;;33.17;22.90;;;1.50;1.00;;;;;;6309386;28;20717;-55
2022/03/03 03:38:20;;;;;;;29.90;22.90;;;1.50;1.00;;;;;;6308751;28;20278;-55
2022/03/03 03:41:23;;;;;;;29.20;22.23;;;1.40;1.00;;;;;;6302492;28;20225;-57
2022/03/03 03:44:26;;;;;;;28.23;21.57;;;1.70;1.00;;;;;;6309483;28;20237;-56
2022/03/03 03:47:29;;;;;;;32.53;23.30;;;1.50;1.00;;;;;;6308273;28;20274;-55
2022/03/03 03:50:41;;;;;;;38.43;24.33;;;1.60;1.00;;;;;;6303933;28;20226;-55
2022/03/03 03:53:45;;;;;;;32.00;22.53;;;1.60;1.00;;;;;;6297469;28;20633;-55
2022/03/03 03:56:47;;;;;;;36.53;25.00;;;1.70;1.00;;;;;;6301267;28;20728;-55
2022/03/03 03:59:50;;;;;;;34.27;23.70;;;1.40;1.00;;;;;;6306564;28;20236;-55
2022/03/03 04:02:53;;;;;;;33.30;23.10;;;1.40;1.00;;;;;;6310579;28;20409;-54
2022/03/03 04:05:56;;;;;;;30.33;22.93;;;1.40;1.00;;;;;;6298401;28;20231;-58
2022/03/03 04:09:00;;;;;;;33.53;23.13;;;1.20;1.00;;;;;;6297441;28;20302;-56
2022/03/03 04:12:03;;;;;;;33.00;21.80;;;1.30;1.00;;;;;;6309208;28;20237;-56
2022/03/03 04:15:09;;;;;;;32.33;23.73;;;1.30;1.00;;;;;;6306597;28;20327;-55
2022/03/03 04:18:13;;;;;;;31.13;23.30;;;1.20;1.00;;;;;;6292367;28;20232;-56
2022/03/03 04:21:17;;;;;;;34.10;22.90;;;1.20;1.00;;;;;;6307777;28;20359;-56
2022/03/03 04:24:21;;;;;;;29.03;22.40;;;1.10;1.00;;;;;;6308151;28;20362;-56
2022/03/03 04:27:23;;;;;;;30.47;22.63;;;1.00;1.00;;;;;;6297173;28;20267;-56
2022/03/03 04:30:26;;;;;;;33.47;23.03;;;0.90;1.00;;;;;;6308062;28;20674;-55
2022/03/03 04:33:29;;;;;;;32.67;22.67;;;1.10;1.00;;;;;;6287455;28;20370;-54
2022/03/03 04:36:32;;;;;;;28.80;22.13;;;0.90;1.00;;;;;;6301562;28;20240;-54
2022/03/03 04:39:36;;;;;;;30.97;22.30;;;1.20;1.00;;;;;;6300788;28;20803;-54
2022/03/03 04:42:38;;;;;;;30.90;21.47;;;0.90;1.00;;;;;;6304226;28;20419;-55
2022/03/03 04:45:42;;;;;;;31.37;22.23;;;1.00;1.00;;;;;;6297160;28;20256;-55
2022/03/03 04:48:45;;;;;;;31.90;22.13;;;1.20;1.00;;;;;;6300243;28;20944;-55
2022/03/03 04:51:48;;;;;;;28.77;21.03;;;1.20;1.00;;;;;;6303769;28;20316;-55
2022/03/03 04:54:52;;;;;;;31.37;21.20;;;1.10;1.00;;;;;;6307143;28;20278;-55
2022/03/03 04:57:55;;;;;;;28.53;20.77;;;0.90;1.00;;;;;;6299783;28;20257;-55
2022/03/03 05:00:57;;;;;;;27.27;20.83;;;1.00;1.00;;;;;;6302620;28;20228;-55
2022/03/03 05:04:00;;;;;;;27.93;20.90;;;0.80;1.00;;;;;;6304228;28;20319;-55
2022/03/03 05:07:03;;;;;;;27.10;19.90;;;0.80;1.00;;;;;;6301659;28;20370;-55
2022/03/03 05:10:09;;;;;;;31.03;20.53;;;1.00;1.00;;;;;;6302368;28;20240;-56
2022/03/03 05:13:12;;;;;;;27.93;21.23;;;0.70;1.00;;;;;;6299699;28;20237;-56
2022/03/03 05:16:15;;;;;;;27.70;19.70;;;0.70;1.00;;;;;;6295664;28;20260;-55
2022/03/03 05:19:18;;;;;;;25.63;19.93;;;0.80;1.00;;;;;;6298531;28;20237;-55
2022/03/03 05:22:21;;;;;;;27.70;20.60;;;0.60;1.00;;;;;;6305973;28;20325;-55
2022/03/03 05:25:25;;;;;;;27.57;20.20;;;0.60;1.00;;;;;;6312176;28;20323;-55
2022/03/03 05:28:28;;;;;;;30.63;21.20;;;0.80;1.00;;;;;;6309934;28;20974;-55
2022/03/03 05:31:31;;;;;;;25.50;20.30;;;0.80;1.00;;;;;;6299174;28;20282;-56
2022/03/03 05:34:34;;;;;;;30.10;20.80;;;0.40;1.00;;;;;;6295944;28;20327;-56
2022/03/03 05:37:37;;;;;;;29.80;21.83;;;0.40;1.00;;;;;;6309089;28;20296;-56
2022/03/03 05:40:41;;;;;;;28.47;21.60;;;0.40;1.00;;;;;;6310362;28;20435;-56
2022/03/03 05:43:44;;;;;;;29.70;21.10;;;0.20;1.00;;;;;;6306115;28;20238;-55
2022/03/03 05:46:48;;;;;;;26.27;20.30;;;0.30;1.00;;;;;;6310173;28;20267;-55
2022/03/03 05:49:52;;;;;;;26.77;20.07;;;0.40;1.00;;;;;;6303058;28;20310;-56
2022/03/03 05:52:55;;;;;;;28.23;20.67;;;0.40;1.00;;;;;;6296979;28;20418;-55
2022/03/03 05:56:06;;;;;;;24.43;19.27;;;0.40;1.00;;;;;;6310277;28;20240;-55
2022/03/03 05:59:14;;;;;;;27.23;20.80;;;0.30;1.00;;;;;;6311302;28;20229;-55
2022/03/03 06:02:18;;;;;;;29.53;20.53;;;0.20;1.00;;;;;;6308705;28;20525;-55
2022/03/03 06:05:25;;;;;;;29.00;21.17;;;0.40;1.00;;;;;;6310556;28;20358;-55
2022/03/03 06:08:32;;;;;;;32.27;20.43;;;0.30;1.00;;;;;;6308572;28;20718;-56
2022/03/03 06:11:42;;;;;;;30.63;20.37;;;0.40;1.00;;;;;;6304788;28;20229;-55
2022/03/03 06:14:51;;;;;;;22.50;19.03;;;0.30;1.00;;;;;;6312419;28;20240;-56
2022/03/03 06:17:56;;;;;;;26.20;20.80;;;0.30;1.00;;;;;;6307236;28;20237;-55
2022/03/03 06:21:00;;;;;;;30.47;22.30;;;0.40;1.00;;;;;;6311082;28;20300;-55
2022/03/03 06:24:05;;;;;;;31.30;21.47;;;0.40;1.00;;;;;;6308733;28;20255;-56
2022/03/03 06:27:10;;;;;;;30.10;23.07;;;0.40;1.00;;;;;;6306722;28;20232;-57
2022/03/03 06:30:13;;;;;;;34.40;24.23;;;0.40;1.00;;;;;;6306363;28;20752;-56
2022/03/03 06:33:15;;;;;;;35.67;23.50;;;0.40;1.00;;;;;;6289372;28;20241;-56
2022/03/03 06:36:18;;;;;;;33.43;23.73;;;0.30;1.00;;;;;;6304855;28;20382;-56
2022/03/03 06:39:21;;;;;;;35.73;23.90;;;0.60;1.00;;;;;;6296601;28;20956;-56
2022/03/03 06:42:26;;;;;;;34.50;23.50;;;0.60;1.00;;;;;;6306298;28;20233;-55
2022/03/03 06:45:30;;;;;;;35.40;24.27;;;0.50;1.00;;;;;;6299973;28;20489;-54
2022/03/03 06:48:33;;;;;;;33.67;24.33;;;0.50;1.00;;;;;;6308160;28;20237;-55
2022/03/03 06:51:41;;;;;;;33.57;24.80;;;0.50;1.00;;;;;;6294974;28;20289;-55
2022/03/03 06:54:45;;;;;;;33.27;24.40;;;0.70;1.00;;;;;;6304150;28;20319;-56
2022/03/03 06:57:51;;;;;;;33.23;23.70;;;0.80;1.00;;;;;;6307454;28;20350;-57
2022/03/03 07:00:54;;;;;;;32.80;24.43;;;0.80;1.00;;;;;;6306328;28;20319;-55
2022/03/03 07:03:58;;;;;;;38.17;24.27;;;0.90;1.00;;;;;;6306153;28;20627;-57
2022/03/03 07:07:02;;;;;;;36.23;23.97;;;0.90;1.00;;;;;;6308370;28;20333;-55
2022/03/03 07:10:05;;;;;;;33.93;23.33;;;1.00;1.00;;;;;;6307227;28;20258;-57
2022/03/03 07:13:10;;;;;;;32.90;24.07;;;0.90;1.00;;;;;;6310709;28;20330;-54
2022/03/03 07:16:23;;;;;;;41.20;25.27;;;1.00;1.00;;;;;;6309176;28;20313;-55
2022/03/03 07:19:45;;;;;;;37.60;26.10;;;1.60;1.00;;;;;;6306514;28;20237;-54
2022/03/03 07:23:02;;;;;;;37.80;27.40;;;1.40;1.00;;;;;;6309599;28;20256;-55
2022/03/03 07:26:08;;;;;;;41.87;28.20;;;1.00;1.00;;;;;;6309190;28;20822;-55
2022/03/03 07:29:16;;;;;;;45.50;27.97;;;1.00;1.00;;;;;;6287555;28;20279;-56
2022/03/03 07:32:20;;;;;;;49.23;29.60;;;1.00;1.00;;;;;;6300935;28;20256;-57
2022/03/03 07:35:26;;;;;;;46.17;30.40;;;0.80;1.00;;;;;;6308323;28;20365;-56
2022/03/03 07:38:36;;;;;;;49.70;30.50;;;0.60;1.00;;;;;;6297906;28;20401;-55
2022/03/03 07:41:42;;;;;;;51.70;31.77;;;0.80;1.00;;;;;;6291538;28;20370;-56
2022/03/03 07:44:47;;;;;;;47.40;30.00;;;0.60;1.00;;;;;;6298994;28;20426;-56
2022/03/03 07:47:51;;;;;;;50.90;30.23;;;0.50;1.00;;;;;;6308227;28;20809;-56
2022/03/03 07:50:54;;;;;;;50.97;31.70;;;0.40;1.00;;;;;;6307635;28;20276;-56
2022/03/03 07:53:57;;;;;;;57.07;32.37;;;0.50;1.00;;;;;;6300410;28;20335;-56
2022/03/03 07:57:01;;;;;;;51.60;32.10;;;0.50;1.00;;;;;;6309394;28;20256;-56
2022/03/03 08:00:08;;;;;;;58.03;32.57;;;0.40;1.00;;;;;;6309303;28;20316;-55
2022/03/03 08:03:13;;;;;;;55.57;32.40;;;0.40;1.00;;;;;;6302398;28;20532;-55
2022/03/03 08:06:17;;;;;;;53.77;31.63;;;0.50;1.00;;;;;;6301141;28;20232;-56
2022/03/03 08:09:22;;;;;;;59.30;32.57;;;0.50;1.00;;;;;;6304525;28;20312;-56
2022/03/03 08:12:25;;;;;;;53.33;30.77;;;0.50;1.00;;;;;;6308653;28;20347;-56
2022/03/03 08:15:29;;;;;;;48.37;30.33;;;0.50;1.00;;;;;;6308430;28;20237;-58
2022/03/03 08:18:35;;;;;;;45.57;28.53;;;0.50;1.00;;;;;;6306172;28;20275;-56
2022/03/03 08:21:38;;;;;;;46.27;27.43;;;0.50;1.00;;;;;;6302410;28;20383;-55
2022/03/03 08:24:43;;;;;;;48.80;28.33;;;0.70;1.00;;;;;;6307840;28;20327;-55
2022/03/03 08:27:46;;;;;;;47.17;27.27;;;0.80;1.00;;;;;;6297025;28;20332;-57
2022/03/03 08:30:52;;;;;;;49.97;28.73;;;0.80;1.00;;;;;;6291545;28;20731;-54
2022/03/03 08:34:02;;;;;;;49.93;28.60;;;0.50;1.00;;;;;;6298415;28;20236;-55
2022/03/03 08:37:11;;;;;;;48.43;27.50;;;0.70;1.00;;;;;;6300469;28;20751;-56
2022/03/03 08:40:16;;;;;;;50.27;28.50;;;0.60;1.00;;;;;;6301003;28;20422;-56
2022/03/03 08:43:21;;;;;;;47.53;27.67;;;0.60;1.00;;;;;;6291861;28;20717;-56
2022/03/03 08:46:27;;;;;;;49.90;29.90;;;0.60;1.00;;;;;;6302252;28;20228;-55
2022/03/03 08:49:36;;;;;;;53.70;29.30;;;0.50;1.00;;;;;;6298107;28;20346;-55
2022/03/03 08:52:40;;;;;;;48.47;28.57;;;0.60;1.00;;;;;;6302947;28;20262;-55
2022/03/03 08:55:43;;;;;;;48.80;29.47;;;0.60;1.00;;;;;;6313293;28;20262;-56
2022/03/03 08:58:46;;;;;;;52.37;30.17;;;0.70;1.00;;;;;;6304283;28;20381;-56
2022/03/03 09:01:51;;;;;;;53.10;29.80;;;0.80;1.00;;;;;;6296974;28;20326;-55
2022/03/03 09:04:54;;;;;;;48.67;28.93;;;1.00;1.00;;;;;;6310731;28;20229;-55
2022/03/03 09:07:57;;;;;;;47.87;27.40;;;0.90;1.00;;;;;;6306222;28;20706;-55
2022/03/03 09:11:00;;;;;;;54.23;30.40;;;0.90;1.00;;;;;;6301947;28;20418;-54
2022/03/03 09:14:03;;;;;;;54.17;29.97;;;1.10;1.00;;;;;;6311598;28;20574;-55
2022/03/03 09:17:08;;;;;;;48.80;28.37;;;1.10;1.00;;;;;;6311350;28;20327;-55
2022/03/03 09:20:13;;;;;;;43.00;27.13;;;1.20;1.00;;;;;;6303408;28;20282;-56
2022/03/03 09:23:16;;;;;;;41.80;25.77;;;1.40;1.00;;;;;;6304598;28;20943;-55
2022/03/03 09:26:19;;;;;;;43.23;25.47;;;1.30;1.00;;;;;;6311943;28;20323;-57
2022/03/03 09:29:22;;;;;;;49.00;27.83;;;1.50;1.00;;;;;;6298199;28;20242;-55
2022/03/03 09:32:27;;;;;;;40.00;25.73;;;1.50;1.00;;;;;;6296920;28;20224;-55
2022/03/03 09:35:30;;;;;;;40.33;25.67;;;1.60;1.00;;;;;;6312145;28;20503;-55
2022/03/03 09:38:32;;;;;;;34.80;22.57;;;1.50;1.00;;;;;;6299113;28;20237;-55
2022/03/03 09:41:35;;;;;;;37.10;21.83;;;1.40;1.00;;;;;;6306305;28;20800;-55
2022/03/03 09:44:38;;;;;;;35.70;21.50;;;1.50;1.00;;;;;;6310727;28;20444;-55
2022/03/03 09:47:42;;;;;;;36.47;22.07;;;1.40;1.00;;;;;;6303369;28;20742;-57
2022/03/03 09:50:45;;;;;;;34.10;21.23;;;1.60;1.00;;;;;;6306511;28;20600;-55
2022/03/03 09:53:49;;;;;;;34.50;21.60;;;1.50;1.00;;;;;;6310561;28;20389;-55
2022/03/03 09:56:52;;;;;;;32.90;21.57;;;1.50;1.00;;;;;;6308005;28;20251;-56
2022/03/03 09:59:56;;;;;;;31.23;20.67;;;1.50;1.00;;;;;;6309929;28;20314;-57
2022/03/03 10:03:08;;;;;;;31.30;20.10;;;1.60;1.00;;;;;;6309859;28;20328;-56
2022/03/03 10:06:12;;;;;;;29.93;19.50;;;1.70;1.00;;;;;;6309848;28;20616;-56
2022/03/03 10:09:17;;;;;;;29.83;19.43;;;2.00;1.00;;;;;;6299826;28;20270;-56
2022/03/03 10:12:19;;;;;;;30.53;19.00;;;1.80;1.00;;;;;;6310746;28;20237;-56
2022/03/03 10:15:26;;;;;;;32.17;18.53;;;1.80;1.00;;;;;;6294508;28;20630;-55
2022/03/03 10:18:30;;;;;;;27.20;17.20;;;2.00;1.00;;;;;;6307661;28;20322;-55
2022/03/03 10:21:37;;;;;;;27.87;16.60;;;2.00;1.00;;;;;;6307659;28;20240;-56
2022/03/03 10:24:44;;;;;;;25.50;17.10;;;2.40;1.00;;;;;;6306308;28;20240;-55
2022/03/03 10:27:47;;;;;;;25.10;15.50;;;2.30;1.00;;;;;;6301305;28;20873;-56
2022/03/03 10:30:56;;;;;;;25.03;15.50;;;2.20;1.00;;;;;;6304819;28;20320;-56
2022/03/03 10:34:02;;;;;;;25.73;15.23;;;2.50;1.00;;;;;;6308362;28;20690;-56
2022/03/03 10:37:08;;;;;;;26.03;15.63;;;2.20;1.00;;;;;;6308060;28;20263;-55
2022/03/03 10:40:13;;;;;;;24.73;16.10;;;2.30;1.00;;;;;;6309812;28;20521;-56
2022/03/03 10:43:16;;;;;;;21.57;14.57;;;2.20;1.00;;;;;;6301985;28;20620;-56
2022/03/03 10:46:19;;;;;;;27.53;14.60;;;2.20;1.00;;;;;;6308578;28;20243;-56
2022/03/03 10:49:26;;;;;;;23.80;14.90;;;2.40;1.00;;;;;;6308231;28;20236;-57
2022/03/03 10:52:31;;;;;;;22.17;13.40;;;2.50;1.00;;;;;;6310342;28;20289;-56
2022/03/03 10:55:33;;;;;;;20.67;13.50;;;2.20;1.00;;;;;;6305894;28;20656;-55
2022/03/03 10:58:47;;;;;;;19.67;13.93;;;2.20;1.00;;;;;;6296447;28;20297;-55
2022/03/03 11:01:51;;;;;;;20.60;12.63;;;2.40;1.00;;;;;;6308120;28;20266;-57
2022/03/03 11:04:56;;;;;;;20.07;12.93;;;2.30;1.00;;;;;;6304024;28;20713;-55
2022/03/03 11:07:58;;;;;;;20.37;12.77;;;2.40;1.00;;;;;;6309075;28;20239;-56
2022/03/03 11:11:04;;;;;;;22.50;13.47;;;2.40;1.00;;;;;;6297084;28;20529;-57
2022/03/03 11:14:07;;;;;;;24.67;14.83;;;2.60;1.00;;;;;;6295670;28;20353;-56
2022/03/03 11:17:10;;;;;;;20.23;13.33;;;2.70;1.00;;;;;;6308478;28;20285;-56
2022/03/03 11:20:16;;;;;;;22.63;14.53;;;2.30;1.00;;;;;;6308826;28;20293;-57
2022/03/03 11:23:20;;;;;;;20.90;14.40;;;2.40;1.00;;;;;;6302304;28;20321;-58
2022/03/03 11:26:24;;;;;;;19.97;12.97;;;2.60;1.00;;;;;;6308949;28;20323;-56
2022/03/03 11:29:29;;;;;;;22.03;13.70;;;2.80;1.00;;;;;;6306958;28;20331;-57
2022/03/03 11:32:32;;;;;;;24.43;13.53;;;2.70;1.00;;;;;;6293653;28;20321;-55
2022/03/03 11:35:48;;;;;;;17.97;13.53;;;2.70;1.00;;;;;;6307832;28;20338;-55
2022/03/03 11:38:53;;;;;;;17.80;12.03;;;2.70;1.00;;;;;;6307555;28;20347;-57
2022/03/03 11:41:56;;;;;;;19.17;12.87;;;3.00;1.00;;;;;;6306750;28;20718;-56
2022/03/03 11:45:01;;;;;;;22.40;12.93;;;2.90;1.00;;;;;;6308199;28;20232;-56
2022/03/03 11:48:13;;;;;;;18.90;12.33;;;2.90;1.00;;;;;;6304757;28;20725;-63
2022/03/03 11:51:34;;;;;;;20.37;13.13;;;2.60;1.00;;;;;;6287385;28;20274;-56
2022/03/03 11:55:00;;;;;;;20.57;12.70;;;2.80;1.00;;;;;;6308957;28;20252;-56
2022/03/03 11:58:06;;;;;;;17.57;11.67;;;2.70;1.00;;;;;;6294967;28;20237;-56
2022/03/03 12:01:11;;;;;;;16.10;11.60;;;2.90;1.00;;;;;;6292150;28;20289;-56
2022/03/03 12:04:16;;;;;;;15.83;11.30;;;2.80;1.00;;;;;;6308408;28;20290;-56
2022/03/03 12:07:30;;;;;;;16.23;11.43;;;2.70;1.00;;;;;;6297199;28;20460;-55
2022/03/03 12:10:35;;;;;;;16.07;10.77;;;3.00;1.00;;;;;;6307751;28;20775;-56
2022/03/03 12:13:46;;;;;;;17.83;11.40;;;3.00;1.00;;;;;;6307292;28;20616;-56
2022/03/03 12:16:49;;;;;;;14.43;10.80;;;2.80;1.00;;;;;;6304548;28;20279;-56
2022/03/03 12:19:52;;;;;;;13.57;10.83;;;3.00;1.00;;;;;;6305889;28;20236;-56
2022/03/03 12:23:05;;;;;;;20.90;11.73;;;3.10;1.00;;;;;;6306648;28;20308;-56
2022/03/03 12:26:08;;;;;;;15.40;11.33;;;3.10;1.00;;;;;;6299150;28;20292;-56
2022/03/03 12:29:30;;;;;;;17.30;12.23;;;2.90;1.00;;;;;;6308551;28;20244;-55
2022/03/03 12:32:39;;;;;;;17.33;11.77;;;3.20;1.00;;;;;;6309003;28;20316;-55
2022/03/03 12:35:43;;;;;;;15.27;11.60;;;3.20;1.00;;;;;;6304843;28;20239;-56
2022/03/03 12:38:47;;;;;;;13.37;10.30;;;3.10;1.00;;;;;;6306457;28;20239;-57
2022/03/03 12:41:53;;;;;;;17.27;11.20;;;2.90;1.00;;;;;;6296012;28;20301;-56
2022/03/03 12:44:57;;;;;;;19.00;11.97;;;3.20;1.00;;;;;;6300026;28;20339;-56
2022/03/03 12:48:00;;;;;;;14.93;10.30;;;3.30;1.00;;;;;;6300466;28;20386;-56
2022/03/03 12:51:04;;;;;;;17.33;11.83;;;3.40;1.00;;;;;;6292473;28;20289;-56
2022/03/03 12:54:08;;;;;;;15.73;11.97;;;3.30;1.00;;;;;;6306266;28;20347;-56
2022/03/03 12:57:11;;;;;;;14.67;12.07;;;3.30;1.00;;;;;;6307133;28;20232;-57
2022/03/03 13:00:14;;;;;;;18.23;11.70;;;3.40;1.00;;;;;;6298424;28;20233;-56
2022/03/03 13:03:19;;;;;;;16.50;11.90;;;3.20;1.00;;;;;;6295901;28;20835;-57
2022/03/03 13:06:23;;;;;;;19.07;12.10;;;3.40;1.00;;;;;;6294850;28;20224;-56
2022/03/03 13:09:27;;;;;;;15.07;11.60;;;3.50;1.00;;;;;;6297562;28;20307;-56
2022/03/03 13:12:43;;;;;;;16.20;12.03;;;3.60;1.00;;;;;;6307019;28;20233;-56
2022/03/03 13:15:47;;;;;;;15.73;11.20;;;3.30;1.00;;;;;;6303955;28;20256;-56
2022/03/03 13:18:50;;;;;;;18.37;12.63;;;3.10;1.00;;;;;;6305805;28;20237;-56
2022/03/03 13:21:53;;;;;;;19.50;13.17;;;3.50;1.00;;;;;;6298700;28;20241;-57
2022/03/03 13:25:15;;;;;;;16.70;13.23;;;3.40;1.00;;;;;;6306668;28;20466;-56
2022/03/03 13:28:25;;;;;;;19.83;12.73;;;3.30;1.00;;;;;;6305113;28;20301;-57
2022/03/03 13:31:31;;;;;;;20.87;13.17;;;3.50;1.00;;;;;;6306237;28;20378;-56
2022/03/03 13:34:36;;;;;;;23.53;14.87;;;3.40;1.00;;;;;;6303339;28;20245;-56
2022/03/03 13:37:39;;;;;;;27.87;15.20;;;3.20;1.00;;;;;;6301021;28;20312;-56
2022/03/03 13:40:43;;;;;;;20.80;13.70;;;3.10;1.00;;;;;;6311187;28;20247;-57
2022/03/03 13:43:45;;;;;;;19.97;14.43;;;3.50;1.00;;;;;;6308062;28;20319;-56
2022/03/03 13:46:58;;;;;;;22.77;13.27;;;3.40;1.00;;;;;;6311839;28;20240;-57
2022/03/03 13:50:01;;;;;;;18.63;13.40;;;3.10;1.00;;;;;;6303750;28;20228;-57
2022/03/03 13:53:26;;;;;;;24.90;14.83;;;3.40;1.00;;;;;;6310438;28;20232;-57
2022/03/03 13:56:32;;;;;;;22.53;14.37;;;3.20;1.00;;;;;;6299467;28;20305;-56
2022/03/03 13:59:53;;;;;;;21.50;14.37;;;3.30;1.00;;;;;;6298881;28;20256;-57
2022/03/03 14:02:58;;;;;;;25.87;15.60;;;3.50;1.00;;;;;;6308408;28;20262;-56
2022/03/03 14:06:03;;;;;;;27.00;15.80;;;3.40;1.00;;;;;;6310774;28;20244;-60
2022/03/03 14:09:06;;;;;;;27.80;15.23;;;3.50;1.00;;;;;;6299597;28;20798;-61
2022/03/03 14:12:14;;;;;;;28.67;17.37;;;3.60;1.00;;;;;;6302764;28;20228;-56
2022/03/03 14:15:19;;;;;;;27.50;16.37;;;3.50;1.00;;;;;;6310657;28;20737;-57
2022/03/03 14:18:24;;;;;;;32.60;18.03;;;3.40;1.00;;;;;;6307993;28;20252;-56
2022/03/03 14:21:29;;;;;;;30.73;16.80;;;3.20;1.00;;;;;;6303134;28;20240;-59
2022/03/03 14:24:31;;;;;;;28.37;15.57;;;3.10;1.00;;;;;;6310838;28;20339;-56
2022/03/03 14:27:36;;;;;;;30.57;17.40;;;3.10;1.00;;;;;;6300507;28;20232;-55
2022/03/03 14:30:39;;;;;;;31.47;17.63;;;3.40;1.00;;;;;;6306761;28;20229;-55
2022/03/03 14:33:43;;;;;;;33.13;19.03;;;3.50;1.00;;;;;;6305662;28;20281;-56
2022/03/03 14:37:06;;;;;;;38.70;19.90;;;3.50;1.00;;;;;;6305105;28;20628;-56
2022/03/03 14:40:10;;;;;;;28.47;17.30;;;3.50;1.00;;;;;;6308914;28;20316;-56
2022/03/03 14:43:16;;;;;;;29.63;17.47;;;3.70;1.00;;;;;;6309981;28;20237;-56
2022/03/03 14:46:19;;;;;;;30.60;16.90;;;3.50;1.00;;;;;;6301596;28;20256;-57
2022/03/03 14:49:21;;;;;;;29.90;17.17;;;3.40;1.00;;;;;;6306872;28;20228;-56
2022/03/03 14:52:24;;;;;;;26.00;15.73;;;3.30;1.00;;;;;;6309786;28;20621;-60
2022/03/03 14:55:27;;;;;;;26.90;15.90;;;3.50;1.00;;;;;;6308094;28;20316;-55
2022/03/03 14:58:31;;;;;;;28.13;15.83;;;3.50;1.00;;;;;;6306153;28;20248;-57
2022/03/03 15:01:35;;;;;;;26.67;15.80;;;3.30;1.00;;;;;;6302526;28;20287;-56
2022/03/03 15:04:40;;;;;;;27.43;15.93;;;3.40;1.00;;;;;;6298968;28;20249;-57
2022/03/03 15:07:43;;;;;;;27.40;16.57;;;3.20;1.00;;;;;;6304965;28;20448;-56
2022/03/03 15:10:46;;;;;;;24.63;14.63;;;3.20;1.00;;;;;;6297145;28;20382;-56
2022/03/03 15:13:50;;;;;;;23.10;14.20;;;3.60;1.00;;;;;;6310812;28;20309;-56
2022/03/03 15:16:53;;;;;;;19.47;12.77;;;3.30;1.00;;;;;;6299583;28;20229;-55
2022/03/03 15:19:56;;;;;;;21.43;14.43;;;3.30;1.00;;;;;;6285174;28;20515;-55
2022/03/03 15:22:59;;;;;;;21.90;14.10;;;3.20;1.00;;;;;;6306607;28;20732;-55
2022/03/03 15:26:01;;;;;;;21.30;14.00;;;3.60;1.00;;;;;;6304611;28;20729;-56
2022/03/03 15:29:08;;;;;;;20.57;14.50;;;3.60;1.00;;;;;;6301922;28;20225;-56
2022/03/03 15:32:11;;;;;;;20.50;14.17;;;3.40;1.00;;;;;;6310126;28;20308;-56
2022/03/03 15:38:34;;;;;;;24.13;13.87;;;3.50;1.00;;;;;;6292458;28;20241;-56
2022/03/03 15:41:37;;;;;;;24.77;14.27;;;3.50;1.00;;;;;;6306427;28;20244;-56
2022/03/03 15:44:41;;;;;;;18.80;12.40;;;3.30;1.00;;;;;;6303145;28;20372;-56
2022/03/03 15:47:44;;;;;;;16.03;11.97;;;3.60;1.00;;;;;;6309797;28;20701;-56
2022/03/03 15:50:46;;;;;;;19.43;13.23;;;3.50;1.00;;;;;;6304087;28;20253;-55
2022/03/03 15:53:49;;;;;;;15.73;11.30;;;3.80;1.00;;;;;;6288406;28;20285;-55
2022/03/03 15:56:54;;;;;;;18.93;12.20;;;3.70;1.00;;;;;;6309991;28;20918;-56
2022/03/03 15:59:58;;;;;;;16.53;12.00;;;3.50;1.00;;;;;;6295674;28;20722;-55
2022/03/03 16:03:01;;;;;;;14.53;11.60;;;3.70;1.00;;;;;;6304140;28;20239;-57
2022/03/03 16:06:04;;;;;;;14.53;11.37;;;3.50;1.00;;;;;;6309031;28;20780;-57